Time;durP1;ratioP1;P1;durP2;ratioP2;P2;SDS_P1;SDS_P2;PMS_P1;PMS_P2;Temp;Humidity;BMP_temperature;BMP_pressure;BME280_temperature;BME280_humidity;BME280_pressure;Samples;Min_cycle;Max_cycle;Signal;HPM_P1;HPM_P2
2022/12/29 00:01:17;;;;;;;3.03;2.25;;;11.30;99.90;;;;;;5045068;28;20021;-68
2022/12/29 00:03:45;;;;;;;2.20;2.00;;;11.20;99.90;;;;;;5043511;28;20086;-69
2022/12/29 00:06:11;;;;;;;2.10;1.70;;;11.30;99.90;;;;;;5044488;28;20542;-69
2022/12/29 00:08:39;;;;;;;2.53;2.08;;;11.30;99.90;;;;;;5046370;28;20029;-69
2022/12/29 00:11:07;;;;;;;1.85;1.75;;;11.40;99.90;;;;;;5050291;28;20071;-69
2022/12/29 00:16:16;;;;;;;1.92;1.83;;;11.30;99.90;;;;;;5041378;28;20079;-70
2022/12/29 00:18:42;;;;;;;2.45;1.90;;;11.30;99.90;;;;;;5051107;28;20108;-71
2022/12/29 00:35:10;;;;;;;3.92;1.70;;;11.50;99.90;;;;;;5054245;28;20381;-68
2022/12/29 00:45:59;;;;;;;2.83;1.45;;;11.50;99.90;;;;;;5047222;28;20059;-69
2022/12/29 00:51:09;;;;;;;3.17;1.42;;;11.60;99.90;;;;;;5059974;28;20039;-69
2022/12/29 00:53:35;;;;;;;1.45;1.35;;;11.60;99.90;;;;;;5059650;28;20111;-70
2022/12/29 00:56:00;;;;;;;2.65;1.45;;;11.60;99.90;;;;;;5058936;28;20036;-69
2022/12/29 00:58:30;;;;;;;1.58;1.20;;;11.60;99.90;;;;;;5054671;28;20036;-69
2022/12/29 01:01:07;;;;;;;2.17;1.20;;;11.60;99.90;;;;;;5053701;28;20021;-69
2022/12/29 01:03:37;;;;;;;1.65;1.20;;;11.60;99.90;;;;;;5054366;28;20427;-70
2022/12/29 01:06:04;;;;;;;3.40;1.30;;;11.50;99.90;;;;;;5053812;28;20021;-70
2022/12/29 01:08:30;;;;;;;2.67;1.17;;;11.50;99.90;;;;;;5053743;28;20504;-69
2022/12/29 01:11:07;;;;;;;1.35;1.20;;;11.40;99.90;;;;;;5054601;28;20013;-69
2022/12/29 01:13:33;;;;;;;2.17;1.15;;;11.30;99.90;;;;;;5054747;28;20115;-70
2022/12/29 01:15:59;;;;;;;3.53;1.67;;;11.30;99.90;;;;;;5052932;28;20484;-69
2022/12/29 01:18:26;;;;;;;1.83;1.30;;;11.20;99.90;;;;;;5054613;28;20062;-69
2022/12/29 01:20:59;;;;;;;3.22;1.40;;;11.20;99.90;;;;;;5053656;28;20147;-70
2022/12/29 01:23:24;;;;;;;1.73;1.63;;;11.20;99.90;;;;;;5054447;28;20079;-69
2022/12/29 01:25:50;;;;;;;2.15;1.60;;;11.20;99.90;;;;;;5053830;28;20053;-69
2022/12/29 01:28:15;;;;;;;1.55;1.45;;;11.20;99.90;;;;;;5053956;28;20025;-69
2022/12/29 01:30:41;;;;;;;2.38;1.50;;;11.20;99.90;;;;;;5054331;28;20504;-70
2022/12/29 01:33:06;;;;;;;3.20;1.60;;;11.20;99.90;;;;;;5053730;28;20036;-69
2022/12/29 01:35:32;;;;;;;1.67;1.58;;;11.10;99.90;;;;;;5053541;28;20104;-70
2022/12/29 01:37:58;;;;;;;1.63;1.35;;;11.20;99.90;;;;;;5052879;28;20052;-70
2022/12/29 01:40:24;;;;;;;2.33;1.83;;;11.20;99.90;;;;;;5053773;28;20025;-69
2022/12/29 01:42:50;;;;;;;2.25;1.77;;;11.10;99.90;;;;;;5053445;28;20025;-71
2022/12/29 01:45:17;;;;;;;2.97;1.95;;;11.10;99.90;;;;;;5039758;28;20066;-69
2022/12/29 01:47:56;;;;;;;2.60;1.70;;;11.10;99.90;;;;;;5053835;28;20032;-69
2022/12/29 01:50:24;;;;;;;2.65;1.38;;;11.10;99.90;;;;;;5053380;28;20029;-69
2022/12/29 01:53:11;;;;;;;2.88;1.67;;;11.10;99.90;;;;;;5053835;28;20420;-69
2022/12/29 01:55:46;;;;;;;2.53;1.58;;;11.20;99.90;;;;;;5054028;28;20021;-69
2022/12/29 01:58:14;;;;;;;3.13;1.55;;;11.20;99.90;;;;;;5053079;28;20033;-69
2022/12/29 02:00:40;;;;;;;1.40;1.10;;;11.20;99.90;;;;;;5053475;28;20434;-69
2022/12/29 02:03:07;;;;;;;2.38;1.50;;;11.20;99.90;;;;;;5053298;28;20049;-69
2022/12/29 02:05:47;;;;;;;4.82;1.73;;;11.20;99.90;;;;;;5053743;28;20420;-70
2022/12/29 02:08:13;;;;;;;1.80;1.17;;;11.20;99.90;;;;;;5053222;28;20113;-70
2022/12/29 02:10:40;;;;;;;1.13;0.90;;;11.10;99.90;;;;;;5053396;28;20100;-70
2022/12/29 02:13:06;;;;;;;2.28;1.20;;;11.10;99.90;;;;;;5053495;28;20470;-70
2022/12/29 02:15:50;;;;;;;5.85;0.90;;;11.00;99.90;;;;;;5053686;28;20021;-69
2022/12/29 02:18:46;;;;;;;2.38;1.13;;;11.10;99.90;;;;;;5053429;28;20029;-70
2022/12/29 02:21:39;;;;;;;7.10;1.02;;;11.10;99.90;;;;;;5053182;28;20049;-70
2022/12/29 02:24:25;;;;;;;3.60;1.00;;;11.10;99.90;;;;;;5053140;28;20108;-69
2022/12/29 02:27:11;;;;;;;2.28;0.55;;;11.20;99.90;;;;;;5053196;28;20080;-70
2022/12/29 02:29:46;;;;;;;2.95;0.60;;;11.20;99.90;;;;;;5053662;28;20021;-69
2022/12/29 02:32:30;;;;;;;3.35;0.77;;;11.20;99.90;;;;;;5052989;28;20397;-70
2022/12/29 02:35:08;;;;;;;2.22;0.73;;;11.20;99.90;;;;;;5053607;28;20024;-70
2022/12/29 02:37:49;;;;;;;2.22;0.70;;;11.10;99.90;;;;;;5053956;28;20808;-69
2022/12/29 02:40:24;;;;;;;3.38;0.73;;;11.10;99.90;;;;;;5052963;28;20021;-68
2022/12/29 02:43:13;;;;;;;2.80;0.60;;;11.10;99.90;;;;;;5053111;28;20029;-70
2022/12/29 02:45:58;;;;;;;3.40;0.60;;;11.00;99.90;;;;;;5052136;28;20415;-69
2022/12/29 02:48:42;;;;;;;1.92;0.80;;;11.00;99.90;;;;;;5052473;28;20033;-69
2022/12/29 02:51:15;;;;;;;2.22;0.70;;;11.00;99.90;;;;;;5052748;28;20025;-69
2022/12/29 02:56:25;;;;;;;2.03;0.70;;;10.90;99.90;;;;;;5052416;28;20116;-69
2022/12/29 02:58:51;;;;;;;4.47;0.93;;;10.80;99.90;;;;;;5051822;28;20096;-70
2022/12/29 03:01:31;;;;;;;3.67;0.90;;;10.90;99.90;;;;;;5052472;28;20449;-70
2022/12/29 03:03:57;;;;;;;;;;;10.90;99.90;;;;;;5057939;28;20109;-70
2022/12/29 03:06:39;;;;;;;1.70;0.47;;;10.90;99.90;;;;;;5061951;28;19916;-70
2022/12/29 03:09:20;;;;;;;7.63;0.90;;;10.80;99.90;;;;;;5053392;28;20489;-70
2022/12/29 03:12:16;;;;;;;2.53;0.70;;;10.80;99.90;;;;;;5054481;28;20064;-70
2022/12/29 03:17:58;;;;;;;6.25;1.15;;;10.80;99.90;;;;;;5058587;28;20067;-70
2022/12/29 03:20:31;;;;;;;3.30;1.00;;;10.80;99.90;;;;;;5053860;28;20025;-70
2022/12/29 03:23:01;;;;;;;2.28;0.70;;;10.80;99.90;;;;;;5051941;28;20540;-69
2022/12/29 03:25:38;;;;;;;2.92;0.50;;;10.80;99.90;;;;;;5051770;28;20477;-69
2022/12/29 03:28:09;;;;;;;4.07;1.00;;;10.70;99.90;;;;;;5051277;28;20025;-69
2022/12/29 03:30:37;;;;;;;5.88;0.80;;;10.70;99.90;;;;;;5052585;28;20034;-70
2022/12/29 03:33:07;;;;;;;2.78;0.70;;;10.60;99.90;;;;;;5052262;28;20033;-70
2022/12/29 03:35:35;;;;;;;5.68;0.82;;;10.50;99.90;;;;;;5050987;28;20108;-71
2022/12/29 03:38:24;;;;;;;5.68;0.93;;;10.40;99.90;;;;;;5051967;28;20519;-68
2022/12/29 03:40:55;;;;;;;3.03;1.10;;;10.40;99.90;;;;;;5037678;28;20106;-69
2022/12/29 03:43:21;;;;;;;3.95;1.10;;;10.40;99.90;;;;;;5032004;28;20026;-70
2022/12/29 03:45:47;;;;;;;2.13;1.05;;;10.20;99.90;;;;;;5035850;28;20029;-69
2022/12/29 03:48:12;;;;;;;2.97;1.20;;;10.10;99.90;;;;;;5051093;28;20017;-69
2022/12/29 03:50:38;;;;;;;5.25;2.20;;;10.10;99.90;;;;;;5037394;28;20029;-70
2022/12/29 03:53:03;;;;;;;4.40;1.10;;;10.10;99.90;;;;;;5051588;28;20033;-69
2022/12/29 03:55:29;;;;;;;2.90;0.90;;;10.20;99.90;;;;;;5051690;28;20021;-70
2022/12/29 03:57:55;;;;;;;6.88;1.52;;;10.20;99.90;;;;;;5041858;28;20052;-69
2022/12/29 04:00:20;;;;;;;4.85;1.05;;;10.20;99.90;;;;;;5046660;28;20037;-69
2022/12/29 04:02:46;;;;;;;6.15;1.00;;;10.30;99.90;;;;;;5054358;28;20025;-70
2022/12/29 04:05:12;;;;;;;3.70;1.10;;;10.40;99.90;;;;;;5056038;28;20036;-69
2022/12/29 04:07:38;;;;;;;5.82;1.05;;;10.40;99.90;;;;;;5055483;28;20503;-69
2022/12/29 04:10:04;;;;;;;6.65;1.40;;;10.50;99.90;;;;;;5055009;28;20021;-68
2022/12/29 04:12:29;;;;;;;5.93;1.55;;;10.60;99.90;;;;;;5055886;28;20489;-69
2022/12/29 04:14:55;;;;;;;4.18;1.17;;;10.60;99.90;;;;;;5047930;28;20064;-70
2022/12/29 04:17:20;;;;;;;2.60;0.98;;;10.60;99.90;;;;;;5048611;28;20048;-70
2022/12/29 04:19:46;;;;;;;7.50;1.23;;;10.60;99.90;;;;;;5055778;28;20021;-70
2022/12/29 04:22:12;;;;;;;5.78;1.10;;;10.70;99.90;;;;;;5055071;28;20085;-69
2022/12/29 04:24:37;;;;;;;4.45;1.35;;;10.70;99.90;;;;;;5054547;28;20473;-70
2022/12/29 04:27:03;;;;;;;4.45;1.33;;;10.70;99.90;;;;;;5055143;28;20060;-69
2022/12/29 04:29:29;;;;;;;6.68;1.65;;;10.80;99.90;;;;;;5055131;28;20021;-69
2022/12/29 04:31:54;;;;;;;6.90;1.20;;;10.70;99.90;;;;;;5054425;28;20029;-69
2022/12/29 04:34:20;;;;;;;6.60;1.30;;;10.60;99.90;;;;;;5055496;28;20025;-70
2022/12/29 04:36:45;;;;;;;9.77;2.85;;;10.50;99.90;;;;;;5055746;28;20025;-69
2022/12/29 04:39:11;;;;;;;6.97;1.73;;;10.50;99.90;;;;;;5054625;28;20496;-70
2022/12/29 04:41:36;;;;;;;7.50;1.65;;;10.30;99.90;;;;;;5055818;28;20025;-69
2022/12/29 04:44:02;;;;;;;7.10;1.55;;;10.20;99.90;;;;;;5054781;28;20479;-70
2022/12/29 04:46:28;;;;;;;12.38;1.60;;;10.20;99.90;;;;;;5054994;28;20030;-69
2022/12/29 04:48:53;;;;;;;11.82;1.80;;;10.10;99.90;;;;;;5047851;28;20021;-70
2022/12/29 04:51:19;;;;;;;6.93;1.95;;;10.10;99.90;;;;;;5047306;28;20060;-69
2022/12/29 04:53:44;;;;;;;9.77;1.58;;;10.10;99.90;;;;;;5054815;28;20028;-69
2022/12/29 04:56:10;;;;;;;10.35;2.38;;;10.10;99.90;;;;;;5055123;28;20394;-69
2022/12/29 04:58:36;;;;;;;10.65;1.85;;;10.20;99.90;;;;;;5052943;28;20032;-70
2022/12/29 05:01:02;;;;;;;11.68;1.52;;;10.10;99.90;;;;;;5042352;28;20025;-71
2022/12/29 05:03:27;;;;;;;13.13;1.75;;;10.10;99.90;;;;;;5055536;28;20021;-70
2022/12/29 05:05:55;;;;;;;9.93;1.33;;;10.20;99.90;;;;;;5054856;28;20372;-71
2022/12/29 05:08:21;;;;;;;7.00;1.10;;;11.10;99.90;;;;;;5050901;28;20025;-69
2022/12/29 05:10:47;;;;;;;9.30;1.75;;;10.20;99.90;;;;;;5035252;28;20369;-69
2022/12/29 05:13:12;;;;;;;14.25;2.22;;;10.30;99.90;;;;;;5032954;28;20041;-69
2022/12/29 05:15:38;;;;;;;8.82;1.95;;;10.50;99.90;;;;;;5034685;28;20040;-70
2022/12/29 05:18:04;;;;;;;9.82;1.83;;;10.30;99.90;;;;;;5033299;28;20093;-69
2022/12/29 05:20:29;;;;;;;14.00;2.80;;;10.30;99.90;;;;;;5033368;28;20021;-70
2022/12/29 05:22:55;;;;;;;7.30;1.73;;;10.30;99.90;;;;;;5034873;28;20470;-70
2022/12/29 05:25:20;;;;;;;8.95;1.67;;;10.30;99.90;;;;;;5034241;28;20045;-70
2022/12/29 05:27:46;;;;;;;6.50;2.15;;;10.40;99.90;;;;;;5033368;28;20537;-69
2022/12/29 05:30:12;;;;;;;14.07;1.80;;;10.40;99.90;;;;;;5038505;28;20493;-70
2022/12/29 05:32:38;;;;;;;8.52;1.63;;;10.40;99.90;;;;;;5034336;28;20371;-69
2022/12/29 05:35:03;;;;;;;11.27;1.48;;;10.50;99.90;;;;;;5042215;28;20048;-70
2022/12/29 05:37:29;;;;;;;14.68;1.55;;;10.50;99.90;;;;;;5039472;28;20064;-69
2022/12/29 05:39:55;;;;;;;4.50;1.13;;;10.50;99.90;;;;;;5034309;28;20556;-70
2022/12/29 05:42:20;;;;;;;5.15;1.58;;;10.50;99.90;;;;;;5033053;28;20107;-70
2022/12/29 05:44:46;;;;;;;7.30;1.30;;;10.50;99.90;;;;;;5032870;28;20028;-69
2022/12/29 05:47:11;;;;;;;8.90;1.58;;;10.60;99.90;;;;;;5033359;28;20112;-69
2022/12/29 05:49:37;;;;;;;9.90;1.23;;;10.50;99.90;;;;;;5031850;28;20116;-70
2022/12/29 05:52:03;;;;;;;11.18;2.53;;;10.60;99.90;;;;;;5032772;28;20084;-69
2022/12/29 05:54:28;;;;;;;15.75;1.77;;;10.50;99.90;;;;;;5031993;28;20040;-70
2022/12/29 05:56:54;;;;;;;14.13;2.83;;;10.50;99.90;;;;;;5031291;28;20481;-69
2022/12/29 05:59:19;;;;;;;13.20;3.25;;;10.40;99.90;;;;;;5032048;28;20045;-68
2022/12/29 06:01:45;;;;;;;11.57;2.45;;;10.50;99.90;;;;;;5045461;28;20021;-69
2022/12/29 06:04:10;;;;;;;15.80;2.40;;;10.40;99.90;;;;;;5050718;28;20481;-69
2022/12/29 06:06:36;;;;;;;10.82;2.53;;;10.40;99.90;;;;;;5052335;28;20017;-69
2022/12/29 06:09:02;;;;;;;8.20;1.95;;;10.50;99.90;;;;;;5047916;28;20033;-69
2022/12/29 06:11:27;;;;;;;7.05;1.25;;;10.50;99.90;;;;;;5044957;28;20028;-69
2022/12/29 06:13:53;;;;;;;21.52;2.42;;;10.50;99.90;;;;;;5048735;28;20079;-69
2022/12/29 06:16:19;;;;;;;14.23;1.88;;;10.50;99.90;;;;;;5047194;28;20013;-70
2022/12/29 06:18:44;;;;;;;9.20;2.17;;;10.40;99.90;;;;;;5051491;28;20029;-69
2022/12/29 06:21:10;;;;;;;10.85;1.80;;;10.40;99.90;;;;;;5051359;28;20061;-70
2022/12/29 06:23:35;;;;;;;11.52;2.17;;;10.30;99.90;;;;;;5051708;28;20028;-69
2022/12/29 06:26:01;;;;;;;9.93;2.08;;;10.40;99.90;;;;;;5043676;28;20095;-69
2022/12/29 06:28:27;;;;;;;10.95;1.63;;;10.30;99.90;;;;;;5050349;28;20135;-69
2022/12/29 06:30:52;;;;;;;11.98;1.70;;;10.30;99.90;;;;;;5045675;28;20021;-69
2022/12/29 06:33:18;;;;;;;6.35;1.77;;;10.30;99.90;;;;;;5051991;28;20098;-69
2022/12/29 06:35:45;;;;;;;14.07;2.03;;;10.30;99.90;;;;;;5051713;28;20484;-69
2022/12/29 06:38:11;;;;;;;12.30;1.60;;;10.20;99.90;;;;;;5038161;28;20039;-69
2022/12/29 06:40:37;;;;;;;12.65;2.05;;;10.20;99.90;;;;;;5052358;28;20099;-69
2022/12/29 06:43:02;;;;;;;13.77;2.17;;;10.20;99.90;;;;;;5052721;28;20491;-69
2022/12/29 06:45:28;;;;;;;6.88;1.25;;;10.20;99.90;;;;;;5050326;28;20026;-70
2022/12/29 06:47:53;;;;;;;8.65;2.83;;;10.10;99.90;;;;;;5047608;28;20116;-70
2022/12/29 06:50:19;;;;;;;5.28;1.42;;;10.00;99.90;;;;;;5054351;28;20108;-69
2022/12/29 06:52:44;;;;;;;12.70;1.95;;;9.90;99.90;;;;;;5054046;28;20179;-68
2022/12/29 06:55:10;;;;;;;7.45;2.20;;;9.80;99.90;;;;;;5052430;28;20036;-70
2022/12/29 06:57:35;;;;;;;9.73;1.83;;;9.70;99.90;;;;;;5050940;28;20052;-70
2022/12/29 07:00:02;;;;;;;7.95;1.50;;;9.60;99.90;;;;;;5050774;28;20029;-69
2022/12/29 07:02:28;;;;;;;5.93;1.40;;;9.50;99.90;;;;;;5051231;28;20121;-68
2022/12/29 07:04:53;;;;;;;4.97;1.30;;;9.40;99.90;;;;;;5051299;28;20100;-69
2022/12/29 07:07:20;;;;;;;10.38;1.75;;;9.30;99.90;;;;;;5049642;28;20028;-69
2022/12/29 07:09:46;;;;;;;9.57;2.17;;;9.30;99.90;;;;;;5051121;28;20408;-69
2022/12/29 07:12:12;;;;;;;9.98;1.90;;;9.20;99.90;;;;;;5047866;28;20098;-69
2022/12/29 07:14:37;;;;;;;10.25;1.67;;;9.20;99.90;;;;;;5046738;28;20037;-70
2022/12/29 07:17:06;;;;;;;12.02;1.85;;;9.20;99.90;;;;;;5045353;28;20025;-70
2022/12/29 07:19:32;;;;;;;10.90;2.05;;;9.30;99.90;;;;;;5044148;28;20017;-70
2022/12/29 07:21:58;;;;;;;15.05;1.73;;;9.30;99.90;;;;;;5045212;28;20025;-69
2022/12/29 07:24:25;;;;;;;5.43;1.50;;;9.40;99.90;;;;;;5045922;28;20028;-69
2022/12/29 07:26:51;;;;;;;10.80;1.77;;;9.40;99.90;;;;;;5047550;28;20053;-69
2022/12/29 07:29:17;;;;;;;7.90;2.30;;;9.40;99.90;;;;;;5032747;28;20452;-69
2022/12/29 07:31:43;;;;;;;16.20;1.73;;;9.40;99.90;;;;;;5031940;28;20075;-70
2022/12/29 07:34:09;;;;;;;8.10;1.92;;;9.40;99.90;;;;;;5030173;28;20033;-69
2022/12/29 07:36:34;;;;;;;11.30;1.90;;;9.50;99.90;;;;;;5035895;28;20029;-68
2022/12/29 07:39:00;;;;;;;25.77;3.50;;;9.50;99.90;;;;;;5048321;28;20472;-69
2022/12/29 07:41:25;;;;;;;12.75;2.17;;;9.60;99.90;;;;;;5040129;28;20017;-69
2022/12/29 07:43:51;;;;;;;15.23;2.40;;;9.60;99.90;;;;;;5040128;28;20037;-70
2022/12/29 07:46:16;;;;;;;10.65;2.13;;;9.60;99.90;;;;;;5034049;28;20021;-69
2022/12/29 07:48:42;;;;;;;9.23;2.10;;;9.60;99.90;;;;;;5038356;28;20128;-70
2022/12/29 07:51:08;;;;;;;10.38;2.17;;;9.60;99.90;;;;;;5049690;28;20180;-69
2022/12/29 07:53:33;;;;;;;13.05;2.40;;;9.60;99.90;;;;;;5050254;28;20065;-71
2022/12/29 07:56:00;;;;;;;13.80;2.15;;;9.70;99.90;;;;;;5046977;28;20024;-70
2022/12/29 07:58:25;;;;;;;14.88;2.15;;;9.70;99.90;;;;;;5047703;28;20031;-70
2022/12/29 08:00:56;;;;;;;9.48;2.25;;;9.80;99.90;;;;;;5047849;28;20029;-71
2022/12/29 08:03:22;;;;;;;10.05;1.90;;;9.90;99.90;;;;;;5037146;28;20032;-70
2022/12/29 08:05:48;;;;;;;10.70;2.17;;;9.90;99.90;;;;;;5031535;28;20022;-71
2022/12/29 08:08:14;;;;;;;19.88;2.95;;;10.00;99.90;;;;;;5036070;28;20027;-70
2022/12/29 08:10:40;;;;;;;10.77;2.25;;;10.00;99.90;;;;;;5033933;28;20100;-70
2022/12/29 08:13:05;;;;;;;19.55;2.22;;;10.00;99.90;;;;;;5035624;28;20033;-69
2022/12/29 08:15:31;;;;;;;13.70;1.80;;;10.00;99.90;;;;;;5043759;28;20382;-69
2022/12/29 08:17:57;;;;;;;18.15;2.72;;;10.00;99.90;;;;;;5043913;28;20040;-71
2022/12/29 08:20:22;;;;;;;7.93;2.28;;;10.00;99.90;;;;;;5047761;28;20028;-71
2022/12/29 08:22:48;;;;;;;9.10;1.88;;;10.00;99.90;;;;;;5049398;28;20104;-70
2022/12/29 08:25:13;;;;;;;10.75;1.80;;;10.10;99.90;;;;;;5044480;28;20067;-69
2022/12/29 08:27:39;;;;;;;14.23;1.98;;;10.10;99.90;;;;;;5042327;28;20044;-71
2022/12/29 08:30:05;;;;;;;9.95;2.08;;;10.10;99.90;;;;;;5043592;28;20021;-69
2022/12/29 08:32:31;;;;;;;15.70;2.40;;;10.10;99.90;;;;;;5043001;28;20068;-70
2022/12/29 08:34:57;;;;;;;11.52;2.53;;;10.20;99.90;;;;;;5044739;28;20219;-70
2022/12/29 08:37:22;;;;;;;12.38;3.03;;;10.10;99.90;;;;;;5047127;28;20029;-69
2022/12/29 08:39:48;;;;;;;15.57;2.75;;;10.10;99.90;;;;;;5036084;28;20593;-70
2022/12/29 08:42:14;;;;;;;12.02;2.03;;;10.10;99.90;;;;;;5044758;28;20097;-70
2022/12/29 08:44:41;;;;;;;14.95;2.00;;;10.10;99.90;;;;;;5048312;28;20021;-69
2022/12/29 08:47:06;;;;;;;11.57;2.50;;;10.10;99.90;;;;;;5053130;28;20089;-70
2022/12/29 08:49:33;;;;;;;3.75;1.60;;;10.10;99.90;;;;;;5048507;28;20070;-70
2022/12/29 08:51:59;;;;;;;11.75;2.35;;;10.10;99.90;;;;;;5046855;28;20048;-70
2022/12/29 08:54:24;;;;;;;12.63;1.77;;;10.10;99.90;;;;;;5047676;28;20025;-69
2022/12/29 08:56:50;;;;;;;11.20;1.70;;;10.00;99.90;;;;;;5047967;28;20029;-70
2022/12/29 08:59:16;;;;;;;5.35;1.65;;;10.00;99.90;;;;;;5047223;28;20476;-70
2022/12/29 09:01:41;;;;;;;10.35;2.03;;;10.00;99.90;;;;;;5047443;28;20021;-70
2022/12/29 09:04:09;;;;;;;15.77;2.13;;;10.00;99.90;;;;;;5042672;28;20080;-69
2022/12/29 09:06:34;;;;;;;20.15;2.78;;;10.00;99.90;;;;;;5042357;28;20618;-69
2022/12/29 09:09:00;;;;;;;10.10;3.17;;;10.00;99.90;;;;;;5050857;28;20052;-70
2022/12/29 09:11:26;;;;;;;13.82;2.95;;;9.90;99.90;;;;;;5049102;28;20027;-71
2022/12/29 09:13:53;;;;;;;12.20;2.95;;;9.90;99.90;;;;;;5049612;28;20063;-72
2022/12/29 09:16:21;;;;;;;10.48;2.00;;;9.90;99.90;;;;;;5051019;28;20039;-71
2022/12/29 09:18:47;;;;;;;14.82;2.60;;;9.90;99.90;;;;;;5047394;28;20024;-71
2022/12/29 09:21:13;;;;;;;9.73;3.03;;;10.10;99.90;;;;;;5041692;28;20014;-72
2022/12/29 09:23:39;;;;;;;6.95;1.98;;;9.80;99.90;;;;;;5047939;28;20112;-71
2022/12/29 09:26:08;;;;;;;10.05;1.88;;;9.80;99.90;;;;;;5047531;28;20063;-70
2022/12/29 09:28:34;;;;;;;10.13;2.22;;;9.80;99.90;;;;;;5044704;28;20033;-70
2022/12/29 09:31:00;;;;;;;8.25;1.73;;;9.70;99.90;;;;;;5048701;28;20658;-70
2022/12/29 09:33:26;;;;;;;11.20;1.98;;;9.70;99.90;;;;;;5047885;28;20035;-69
2022/12/29 09:35:53;;;;;;;12.13;1.60;;;9.70;99.90;;;;;;5051076;28;20116;-69
2022/12/29 09:38:20;;;;;;;6.88;1.25;;;9.80;99.90;;;;;;5051031;28;20017;-69
2022/12/29 09:40:50;;;;;;;8.30;1.55;;;9.80;99.90;;;;;;5045985;28;20078;-71
2022/12/29 09:43:31;;;;;;;;;;;9.80;99.90;;;;;;5048200;28;20029;-71
2022/12/29 09:46:21;;;;;;;3.42;1.10;;;9.80;99.90;;;;;;5044024;28;19959;-71
2022/12/29 09:49:16;;;;;;;4.57;1.00;;;9.80;99.90;;;;;;5039251;28;20025;-70
2022/12/29 09:51:44;;;;;;;4.40;0.93;;;9.90;99.90;;;;;;5049266;28;20449;-70
2022/12/29 09:54:22;;;;;;;2.35;1.10;;;9.90;99.90;;;;;;5053458;28;20473;-69
2022/12/29 09:56:49;;;;;;;6.15;1.55;;;9.90;99.90;;;;;;5034693;28;20025;-70
2022/12/29 09:59:20;;;;;;;8.48;2.03;;;9.90;99.90;;;;;;5034026;28;20489;-73
2022/12/29 10:01:51;;;;;;;4.82;1.08;;;9.90;99.90;;;;;;5033238;28;20022;-70
2022/12/29 10:04:17;;;;;;;4.65;1.52;;;9.90;99.90;;;;;;5031816;28;20029;-69
2022/12/29 10:06:54;;;;;;;7.93;1.90;;;9.90;99.90;;;;;;5044333;28;20025;-70
2022/12/29 10:09:48;;;;;;;8.80;2.00;;;10.00;99.90;;;;;;5042517;28;20381;-68
2022/12/29 10:12:29;;;;;;;9.15;2.45;;;9.90;99.90;;;;;;5046753;28;20515;-69
2022/12/29 10:15:22;;;;;;;12.18;2.95;;;10.00;99.90;;;;;;5050796;28;20025;-69
2022/12/29 10:18:18;;;;;;;18.02;2.90;;;10.00;99.90;;;;;;5049903;28;20028;-69
2022/12/29 10:21:01;;;;;;;9.27;2.00;;;10.00;99.90;;;;;;5047095;28;20025;-69
2022/12/29 10:23:41;;;;;;;15.20;3.17;;;10.00;99.90;;;;;;5041230;28;20033;-71
2022/12/29 10:26:15;;;;;;;15.93;3.53;;;10.00;99.90;;;;;;5039817;28;20049;-70
2022/12/29 10:28:53;;;;;;;18.55;3.53;;;10.00;99.90;;;;;;5035736;28;20163;-70
2022/12/29 10:31:23;;;;;;;14.00;2.95;;;10.00;99.90;;;;;;5035612;28;20021;-70
2022/12/29 10:33:56;;;;;;;20.58;3.60;;;10.00;99.90;;;;;;5033573;28;20033;-71
2022/12/29 10:36:32;;;;;;;17.02;3.67;;;10.00;99.90;;;;;;5033506;28;20018;-71
2022/12/29 10:39:15;;;;;;;12.18;2.70;;;10.00;99.90;;;;;;5033558;28;20021;-71
2022/12/29 10:41:58;;;;;;;19.67;4.25;;;10.00;99.90;;;;;;5039258;28;20029;-70
2022/12/29 10:44:28;;;;;;;23.70;3.47;;;10.00;99.90;;;;;;5043924;28;20026;-71
2022/12/29 10:47:07;;;;;;;18.42;3.45;;;9.90;99.90;;;;;;5031732;28;20156;-71
2022/12/29 10:49:39;;;;;;;25.98;4.75;;;10.00;99.90;;;;;;5030628;28;20389;-72
2022/12/29 10:52:07;;;;;;;19.23;2.88;;;9.60;99.90;;;;;;5041987;28;20040;-72
2022/12/29 10:54:41;;;;;;;19.63;3.40;;;10.10;99.90;;;;;;5050217;28;20358;-72
2022/12/29 10:57:20;;;;;;;12.70;3.35;;;10.00;99.90;;;;;;5046485;28;20396;-71
2022/12/29 10:59:46;;;;;;;17.73;3.35;;;10.00;99.90;;;;;;5038189;28;20107;-72
2022/12/29 11:02:11;;;;;;;21.35;3.83;;;10.00;99.90;;;;;;5031009;28;20163;-72
2022/12/29 11:05:08;;;;;;;17.77;3.03;;;9.90;99.90;;;;;;5032818;28;20028;-71
2022/12/29 11:07:34;;;;;;;19.77;4.05;;;9.90;99.90;;;;;;5051372;28;20017;-71
2022/12/29 11:10:28;;;;;;;10.77;2.70;;;9.90;99.90;;;;;;5043407;28;20492;-70
2022/12/29 11:12:59;;;;;;;14.70;2.65;;;9.80;99.90;;;;;;5047850;28;20474;-71
2022/12/29 11:15:25;;;;;;;17.25;3.03;;;9.80;99.90;;;;;;5041548;28;20024;-71
2022/12/29 11:17:55;;;;;;;21.05;3.17;;;9.70;99.90;;;;;;5045507;28;20555;-71
2022/12/29 11:20:33;;;;;;;14.25;2.78;;;9.80;99.90;;;;;;5042115;28;20028;-71
2022/12/29 11:23:00;;;;;;;22.92;4.72;;;9.80;99.90;;;;;;5045551;28;20059;-71
2022/12/29 11:25:29;;;;;;;25.05;3.75;;;10.00;99.90;;;;;;5048518;28;20502;-70
2022/12/29 11:28:02;;;;;;;23.05;3.85;;;10.10;99.90;;;;;;5043491;28;20028;-71
2022/12/29 11:30:30;;;;;;;20.80;3.85;;;10.10;99.90;;;;;;5047444;28;20108;-71
2022/12/29 11:32:57;;;;;;;17.70;3.67;;;11.00;99.90;;;;;;5048750;28;20113;-72
2022/12/29 11:35:35;;;;;;;24.83;4.13;;;10.20;99.90;;;;;;5044998;28;20449;-71
2022/12/29 11:38:03;;;;;;;26.60;4.88;;;10.30;99.90;;;;;;5036667;28;20509;-71
2022/12/29 11:40:30;;;;;;;31.92;5.63;;;10.40;99.90;;;;;;5045659;28;20404;-71
2022/12/29 11:42:59;;;;;;;30.20;6.38;;;10.50;99.90;;;;;;5037242;28;20473;-72
2022/12/29 11:45:29;;;;;;;21.92;4.50;;;10.60;99.90;;;;;;5041306;28;20097;-70
2022/12/29 11:47:58;;;;;;;24.80;5.82;;;10.70;99.90;;;;;;5031545;28;20017;-73
2022/12/29 11:50:33;;;;;;;30.98;4.82;;;10.70;99.90;;;;;;5038909;28;20044;-71
2022/12/29 11:53:05;;;;;;;24.08;4.80;;;10.70;99.90;;;;;;5051571;28;20043;-72
2022/12/29 11:55:32;;;;;;;18.35;4.97;;;10.70;99.90;;;;;;5045880;28;20033;-71
2022/12/29 11:58:02;;;;;;;24.10;4.07;;;10.70;99.90;;;;;;5031493;28;20026;-69
2022/12/29 12:00:30;;;;;;;19.40;4.03;;;10.90;99.90;;;;;;5034025;28;20029;-71
2022/12/29 12:03:04;;;;;;;17.60;4.30;;;10.80;99.90;;;;;;5040508;28;20040;-71
2022/12/29 12:05:54;;;;;;;22.52;3.92;;;10.90;99.90;;;;;;5045278;28;20021;-71
2022/12/29 12:08:41;;;;;;;23.20;3.50;;;10.80;99.90;;;;;;5030288;28;20017;-70
2022/12/29 12:11:20;;;;;;;21.05;3.38;;;10.80;99.90;;;;;;5044731;28;20044;-71
2022/12/29 12:14:21;;;;;;;19.33;3.33;;;10.80;99.90;;;;;;5034201;28;20033;-70
2022/12/29 12:16:54;;;;;;;18.02;3.90;;;10.80;99.90;;;;;;5031724;28;20045;-70
2022/12/29 12:19:33;;;;;;;19.02;4.57;;;10.80;99.90;;;;;;5041402;28;20084;-71
2022/12/29 12:22:10;;;;;;;16.40;4.00;;;10.70;99.90;;;;;;5032712;28;20021;-70
2022/12/29 12:24:49;;;;;;;17.02;4.10;;;10.70;99.90;;;;;;5043986;28;20037;-71
2022/12/29 12:27:46;;;;;;;16.63;3.33;;;10.70;99.90;;;;;;5052363;28;20580;-72
2022/12/29 12:30:16;;;;;;;16.65;3.35;;;10.60;99.90;;;;;;5049227;28;20396;-73
2022/12/29 12:33:04;;;;;;;11.68;2.10;;;10.70;99.90;;;;;;5049642;28;20149;-74
2022/12/29 12:35:52;;;;;;;24.05;3.83;;;10.70;99.90;;;;;;5051264;28;20033;-72
2022/12/29 12:38:32;;;;;;;24.75;4.20;;;10.70;99.90;;;;;;5048332;28;20029;-74
2022/12/29 12:41:13;;;;;;;23.05;4.22;;;10.80;99.90;;;;;;5041937;28;20481;-74
2022/12/29 12:43:47;;;;;;;25.02;4.22;;;10.80;99.90;;;;;;5049197;28;20036;-73
2022/12/29 12:46:38;;;;;;;14.18;3.30;;;10.90;99.90;;;;;;5046238;28;20032;-72
2022/12/29 12:49:18;;;;;;;16.88;3.88;;;10.90;99.90;;;;;;5044316;28;20028;-73
2022/12/29 12:51:59;;;;;;;30.92;6.25;;;10.90;99.90;;;;;;5045392;28;20021;-74
2022/12/29 12:55:04;;;;;;;19.00;4.35;;;10.90;99.90;;;;;;5048633;28;20033;-73
2022/12/29 12:58:04;;;;;;;17.55;4.35;;;10.90;99.90;;;;;;5053504;28;20036;-73
2022/12/29 13:00:43;;;;;;;22.97;4.10;;;10.80;99.90;;;;;;5049621;28;20020;-73
2022/12/29 13:03:24;;;;;;;28.92;5.50;;;10.80;99.90;;;;;;5049835;28;20021;-73
2022/12/29 13:06:21;;;;;;;28.60;5.85;;;10.80;99.90;;;;;;5048321;28;20024;-74
2022/12/29 13:09:13;;;;;;;18.67;4.03;;;10.80;99.90;;;;;;5048799;28;20052;-73
2022/12/29 13:11:50;;;;;;;23.33;3.25;;;10.70;99.90;;;;;;5046732;28;20491;-73
2022/12/29 13:14:44;;;;;;;23.33;5.18;;;10.70;99.90;;;;;;5043674;28;20151;-73
2022/12/29 13:17:31;;;;;;;22.85;4.30;;;10.70;99.90;;;;;;5041688;28;20478;-72
2022/12/29 13:20:00;;;;;;;31.35;5.82;;;10.70;99.90;;;;;;5042734;28;20049;-71
2022/12/29 13:22:47;;;;;;;15.85;3.83;;;10.70;99.90;;;;;;5043976;28;20025;-74
2022/12/29 13:25:24;;;;;;;22.52;3.90;;;10.70;99.90;;;;;;5050388;28;20111;-75
2022/12/29 13:27:55;;;;;;;12.93;2.85;;;10.70;99.90;;;;;;5051018;28;20116;-74
2022/12/29 13:30:28;;;;;;;14.40;2.78;;;10.60;99.90;;;;;;5051172;28;20593;-75
2022/12/29 13:33:07;;;;;;;5.85;1.63;;;10.60;99.90;;;;;;5051472;28;20029;-75
2022/12/29 13:35:54;;;;;;;9.88;2.50;;;10.60;99.90;;;;;;5050696;28;20032;-74
2022/12/29 13:38:39;;;;;;;6.65;2.80;;;10.50;99.90;;;;;;5048016;28;20021;-73